Mt Sveva — IBEU — position and weather

sailwx.info

Track history (hours):
 
Tides and Currents Weather Stations Pressure Air Temp Water Temp Dewpoint Dewpoint Depression Visibility Wind Speed Wind Dir Waves Ship Positions

Mt Sveva

Last reported at 2014-Jul-18 09:29 UTC. Time now 2014-Jul-28 20:37 UTC.
Position N 30°56' W 018°15'.
Warning: this ship's position is 10 days out of date.

Length 136 m; draft 8.6 m.

Type: Tanker. MMSI: 247359000.

Date/timePositionNaut miles runAvg speedWind from/ knotsBaromVisibWave heightAir tempDewpointWater temp
2014-Jul-18 09:29N 30°56' W 018°15'35512.6
2014-Jul-17 05:24N 33°31' W 011°57'1012.3
2014-Jul-17 04:32N 33°36' W 011°46'1612.2
2014-Jul-17 03:15N 33°43' W 011°29'912.2
2014-Jul-17 02:32N 33°47' W 011°19'1212.3
2014-Jul-17 01:33N 33°52' W 011°06'1212.4
2014-Jul-17 00:33N 33°57' W 010°53'1712.3
2014-Jul-16 23:12N 34°04' W 010°35'812.4
2014-Jul-16 22:33N 34°08' W 010°26'1312.7
2014-Jul-16 21:33N 34°13' W 010°12'1312.6
2014-Jul-16 20:31N 34°19' W 009°58'7712.4
2014-Jul-16 14:17N 34°53' W 008°33'1112.2
2014-Jul-16 13:23N 34°57' W 008°21'5112.1
2014-Jul-16 09:10N 35°20' W 007°25'247 7.5
2014-Jul-15 00:17N 36°23' W 002°31'1113.5
2014-Jul-14 23:26N 36°25' W 002°16'1112.9
2014-Jul-14 22:33N 36°31' W 002°04'2713.0
2014-Jul-14 20:27N 36°49' W 001°39'1213.1
2014-Jul-14 19:33N 36°56' W 001°27'1312.5
2014-Jul-14 18:33N 37°05' W 001°16'1312.9
2014-Jul-14 17:33N 37°13' W 001°04'2713.3
2014-Jul-14 15:33N 37°31' W 000°38'1312.6
2014-Jul-14 14:32N 37°40' W 000°27'1512.6
2014-Jul-14 13:20N 37°51' W 000°14'1013.0
2014-Jul-14 12:32N 37°59' W 000°05'1312.9
2014-Jul-14 11:33N 38°08' E 000°06'1312.8
2014-Jul-14 10:33N 38°17' E 000°16'1312.8
2014-Jul-14 09:33N 38°27' E 000°28'1312.8
2014-Jul-14 08:33N 38°36' E 000°39'1312.6
2014-Jul-14 07:33N 38°46' E 000°49'1312.4
2014-Jul-14 06:32N 38°55' E 001°01'1312.4
2014-Jul-14 05:31N 39°04' E 001°12'1212.3
2014-Jul-14 04:33N 39°12' E 001°24'1212.3
2014-Jul-14 03:33N 39°20' E 001°36'1212.2
2014-Jul-14 02:34N 39°27' E 001°48'1212.1
2014-Jul-14 01:33N 39°35' E 001°59'1212.0
2014-Jul-14 00:33N 39°42' E 002°12'1211.8
2014-Jul-13 23:33N 39°49' E 002°25'1212.4
2014-Jul-13 22:33N 39°56' E 002°38'1312.5
2014-Jul-13 21:33N 40°02' E 002°52'1412.5
2014-Jul-13 20:26N 40°09' E 003°08'12212.2
2014-Jul-13 10:22N 41°19' E 005°21'9111.5
2014-Jul-13 02:26N 42°08' E 007°04'11011.2
2014-Jul-12 16:33N 43°06' E 009°12'1211.8
2014-Jul-12 15:33N 43°11' E 009°26'1111.3
2014-Jul-12 14:33N 43°14' E 009°41'1211.7
2014-Jul-12 13:34N 43°18' E 009°56'1211.6
2014-Jul-12 12:34N 43°26' E 010°08'10 9.5
2014-Jul-12 11:33N 43°33' E 010°17'2 2.2
2014-Jul-12 10:33N 43°34' E 010°19'0 0.0
2014-Jul-12 09:33N 43°34' E 010°19'0 0.0
2014-Jul-12 08:33N 43°34' E 010°19'0 0.0
2014-Jul-12 07:33N 43°34' E 010°19'0 0.0
2014-Jul-12 06:33N 43°34' E 010°19'0 0.0
2014-Jul-12 05:33N 43°34' E 010°19'0 0.0
2014-Jul-12 04:30N 43°34' E 010°19'0 0.0
2014-Jul-12 03:33N 43°34' E 010°19'0 0.0
2014-Jul-12 02:33N 43°34' E 010°19'0 0.0
2014-Jul-12 01:33N 43°34' E 010°19'0 0.0
2014-Jul-12 00:27N 43°34' E 010°19'0 0.0
2014-Jul-11 23:24N 43°34' E 010°19'0 0.0
2014-Jul-11 22:30N 43°34' E 010°19'0 0.0
2014-Jul-11 21:27N 43°34' E 010°19'0 0.0
2014-Jul-11 20:33N 43°34' E 010°19'0 0.0
2014-Jul-11 19:33N 43°34' E 010°19'0 0.0
2014-Jul-11 18:27N 43°34' E 010°19'0 0.0
2014-Jul-11 17:33N 43°34' E 010°19'0 0.0
2014-Jul-11 16:30N 43°34' E 010°19'0 0.0
2014-Jul-11 15:33N 43°34' E 010°19'0 0.0
2014-Jul-11 14:33N 43°34' E 010°19'0 0.0
2014-Jul-11 13:30N 43°34' E 010°19'0 0.0
2014-Jul-11 12:27N 43°34' E 010°19'0 0.0
2014-Jul-11 11:27N 43°34' E 010°19'0 0.0
2014-Jul-11 10:33N 43°34' E 010°19'0 0.0
2014-Jul-11 09:30N 43°34' E 010°19'0 0.0
2014-Jul-11 08:33N 43°34' E 010°19'0 0.0
2014-Jul-11 07:33N 43°34' E 010°19'0 0.0
2014-Jul-11 06:24N 43°34' E 010°19'0 0.0
2014-Jul-11 05:33N 43°34' E 010°19'0 0.0
2014-Jul-11 04:33N 43°34' E 010°19'0 0.0
2014-Jul-11 03:30N 43°34' E 010°19'0 0.0
2014-Jul-11 02:27N 43°34' E 010°19'0 0.0
2014-Jul-11 01:33N 43°34' E 010°19'0 0.0
2014-Jul-11 00:30N 43°34' E 010°19'0 0.0
2014-Jul-10 23:33N 43°34' E 010°19'0 0.0
2014-Jul-10 22:33N 43°34' E 010°19'0 0.0
2014-Jul-10 21:33N 43°34' E 010°19'0 0.0
2014-Jul-10 20:33N 43°34' E 010°19'0 0.0
2014-Jul-10 19:33N 43°34' E 010°19'0 0.0
2014-Jul-10 18:21N 43°34' E 010°19'0 0.0
2014-Jul-10 17:33N 43°34' E 010°19'0 0.0
2014-Jul-10 16:33N 43°34' E 010°19'0 0.0
2014-Jul-10 15:24N 43°34' E 010°19'0 0.0
2014-Jul-10 14:27N 43°34' E 010°19'0 0.0
2014-Jul-10 13:30N 43°34' E 010°19'0 0.0
2014-Jul-10 12:27N 43°34' E 010°19'0 0.0
2014-Jul-10 11:33N 43°34' E 010°19'0 0.0
2014-Jul-10 10:33N 43°34' E 010°19'0 0.0
2014-Jul-10 09:24N 43°34' E 010°19'0 0.0
2014-Jul-10 08:24N 43°34' E 010°19'0 0.0
2014-Jul-10 07:33N 43°34' E 010°19'0 0.0
2014-Jul-10 06:33N 43°34' E 010°19'0 0.0
2014-Jul-10 05:33N 43°34' E 010°19'0 0.0
2014-Jul-10 04:33N 43°34' E 010°19'0 0.0
2014-Jul-10 03:30N 43°34' E 010°19'0 0.0
2014-Jul-10 02:30N 43°34' E 010°19'0 0.0
2014-Jul-10 01:33N 43°34' E 010°19'0 0.0
2014-Jul-10 00:33N 43°34' E 010°19'0 0.0
2014-Jul-09 23:06N 43°34' E 010°19'0 0.0
2014-Jul-09 22:15N 43°34' E 010°19'0 0.0
2014-Jul-09 21:33N 43°34' E 010°19'0 0.0
2014-Jul-09 20:30N 43°34' E 010°19'0 0.0
2014-Jul-09 19:12N 43°34' E 010°19'0 0.0
2014-Jul-09 18:30N 43°34' E 010°19'0 0.0
2014-Jul-09 17:21N 43°34' E 010°19'0 0.0
2014-Jul-09 16:33N 43°34' E 010°19'0 0.0
2014-Jul-09 15:30N 43°34' E 010°19'0 0.0
2014-Jul-09 14:30N 43°34' E 010°19'0 0.0
2014-Jul-09 13:33N 43°34' E 010°19'3 2.9
2014-Jul-09 12:34N 43°32' E 010°17'4 4.1
2014-Jul-09 11:34N 43°29' E 010°14'2 2.4
2014-Jul-09 10:33N 43°31' E 010°16'0 0.3
2014-Jul-09 09:33N 43°31' E 010°16'0 0.0
2014-Jul-09 08:33N 43°31' E 010°16'0 0.0
2014-Jul-09 07:30N 43°31' E 010°16'0 0.0
2014-Jul-09 06:33N 43°31' E 010°16'0 0.0
2014-Jul-09 05:33N 43°31' E 010°16'0 0.0
2014-Jul-09 04:33N 43°31' E 010°16'0 0.0
2014-Jul-09 03:30N 43°31' E 010°16'0 0.0
2014-Jul-09 02:33N 43°31' E 010°16'0 0.0
2014-Jul-09 01:33N 43°31' E 010°16'0 0.0
2014-Jul-09 00:33N 43°31' E 010°16'0 0.2
2014-Jul-08 23:34N 43°31' E 010°16'1111.0
2014-Jul-08 22:33N 43°21' E 010°09'5 5.2
2014-Jul-08 21:33N 43°17' E 010°04'3 3.1
2014-Jul-08 20:33N 43°20' E 010°06'2 2.3
2014-Jul-08 19:33N 43°22' E 010°07'2 1.9
2014-Jul-08 18:33N 43°24' E 010°07'2 2.1
2014-Jul-08 17:34N 43°26' E 010°09'2 1.5
2014-Jul-08 16:34N 43°27' E 010°11'0 0.1
2014-Jul-08 15:34N 43°27' E 010°11'1 0.7
2014-Jul-08 14:33N 43°27' E 010°12'1 1.2
2014-Jul-08 13:33N 43°28' E 010°13'1 1.4
2014-Jul-08 12:33N 43°29' E 010°15'2 1.6
2014-Jul-08 11:34N 43°30' E 010°17'0 0.0
2014-Jul-08 10:30N 43°30' E 010°17'0 0.0
2014-Jul-08 09:33N 43°30' E 010°17'  
Track history (hours):
 
Tides and Currents Weather Stations Pressure Air Temp Water Temp Dewpoint Dewpoint Depression Visibility Wind Speed Wind Dir Waves Ship Positions

Mt Sveva

Last reported at 2014-Jul-18 09:29 UTC. Time now 2014-Jul-28 20:37 UTC.
Position N 30°56' W 018°15'.
Warning: this ship's position is 10 days out of date.

Length 136 m; draft 8.6 m.

Type: Tanker. MMSI: 247359000.

Date/timePositionNaut miles runAvg speedWind from/ knotsBaromVisibWave heightAir tempDewpointWater temp
2014-Jul-18 09:29N 30°56' W 018°15'35512.6
2014-Jul-17 05:24N 33°31' W 011°57'1012.3
2014-Jul-17 04:32N 33°36' W 011°46'1612.2
2014-Jul-17 03:15N 33°43' W 011°29'912.2
2014-Jul-17 02:32N 33°47' W 011°19'1212.3
2014-Jul-17 01:33N 33°52' W 011°06'1212.4
2014-Jul-17 00:33N 33°57' W 010°53'1712.3
2014-Jul-16 23:12N 34°04' W 010°35'812.4
2014-Jul-16 22:33N 34°08' W 010°26'1312.7
2014-Jul-16 21:33N 34°13' W 010°12'1312.6
2014-Jul-16 20:31N 34°19' W 009°58'7712.4
2014-Jul-16 14:17N 34°53' W 008°33'1112.2
2014-Jul-16 13:23N 34°57' W 008°21'5112.1
2014-Jul-16 09:10N 35°20' W 007°25'247 7.5
2014-Jul-15 00:17N 36°23' W 002°31'1113.5
2014-Jul-14 23:26N 36°25' W 002°16'1112.9
2014-Jul-14 22:33N 36°31' W 002°04'2713.0
2014-Jul-14 20:27N 36°49' W 001°39'1213.1
2014-Jul-14 19:33N 36°56' W 001°27'1312.5
2014-Jul-14 18:33N 37°05' W 001°16'1312.9
2014-Jul-14 17:33N 37°13' W 001°04'2713.3
2014-Jul-14 15:33N 37°31' W 000°38'1312.6
2014-Jul-14 14:32N 37°40' W 000°27'1512.6
2014-Jul-14 13:20N 37°51' W 000°14'1013.0
2014-Jul-14 12:32N 37°59' W 000°05'1312.9
2014-Jul-14 11:33N 38°08' E 000°06'1312.8
2014-Jul-14 10:33N 38°17' E 000°16'1312.8
2014-Jul-14 09:33N 38°27' E 000°28'1312.8
2014-Jul-14 08:33N 38°36' E 000°39'1312.6
2014-Jul-14 07:33N 38°46' E 000°49'1312.4
2014-Jul-14 06:32N 38°55' E 001°01'1312.4
2014-Jul-14 05:31N 39°04' E 001°12'1212.3
2014-Jul-14 04:33N 39°12' E 001°24'1212.3
2014-Jul-14 03:33N 39°20' E 001°36'1212.2
2014-Jul-14 02:34N 39°27' E 001°48'1212.1
2014-Jul-14 01:33N 39°35' E 001°59'1212.0
2014-Jul-14 00:33N 39°42' E 002°12'1211.8
2014-Jul-13 23:33N 39°49' E 002°25'1212.4
2014-Jul-13 22:33N 39°56' E 002°38'1312.5
2014-Jul-13 21:33N 40°02' E 002°52'1412.5
2014-Jul-13 20:26N 40°09' E 003°08'12212.2
2014-Jul-13 10:22N 41°19' E 005°21'9111.5
2014-Jul-13 02:26N 42°08' E 007°04'11011.2
2014-Jul-12 16:33N 43°06' E 009°12'1211.8
2014-Jul-12 15:33N 43°11' E 009°26'1111.3
2014-Jul-12 14:33N 43°14' E 009°41'1211.7
2014-Jul-12 13:34N 43°18' E 009°56'1211.6
2014-Jul-12 12:34N 43°26' E 010°08'10 9.5
2014-Jul-12 11:33N 43°33' E 010°17'2 2.2
2014-Jul-12 10:33N 43°34' E 010°19'0 0.0
2014-Jul-12 09:33N 43°34' E 010°19'0 0.0
2014-Jul-12 08:33N 43°34' E 010°19'0 0.0
2014-Jul-12 07:33N 43°34' E 010°19'0 0.0
2014-Jul-12 06:33N 43°34' E 010°19'0 0.0
2014-Jul-12 05:33N 43°34' E 010°19'0 0.0
2014-Jul-12 04:30N 43°34' E 010°19'0 0.0
2014-Jul-12 03:33N 43°34' E 010°19'0 0.0
2014-Jul-12 02:33N 43°34' E 010°19'0 0.0
2014-Jul-12 01:33N 43°34' E 010°19'0 0.0
2014-Jul-12 00:27N 43°34' E 010°19'0 0.0
2014-Jul-11 23:24N 43°34' E 010°19'0 0.0
2014-Jul-11 22:30N 43°34' E 010°19'0 0.0
2014-Jul-11 21:27N 43°34' E 010°19'0 0.0
2014-Jul-11 20:33N 43°34' E 010°19'0 0.0
2014-Jul-11 19:33N 43°34' E 010°19'0 0.0
2014-Jul-11 18:27N 43°34' E 010°19'0 0.0
2014-Jul-11 17:33N 43°34' E 010°19'0 0.0
2014-Jul-11 16:30N 43°34' E 010°19'0 0.0
2014-Jul-11 15:33N 43°34' E 010°19'0 0.0
2014-Jul-11 14:33N 43°34' E 010°19'0 0.0
2014-Jul-11 13:30N 43°34' E 010°19'0 0.0
2014-Jul-11 12:27N 43°34' E 010°19'0 0.0
2014-Jul-11 11:27N 43°34' E 010°19'0 0.0
2014-Jul-11 10:33N 43°34' E 010°19'0 0.0
2014-Jul-11 09:30N 43°34' E 010°19'0 0.0
2014-Jul-11 08:33N 43°34' E 010°19'0 0.0
2014-Jul-11 07:33N 43°34' E 010°19'0 0.0
2014-Jul-11 06:24N 43°34' E 010°19'0 0.0
2014-Jul-11 05:33N 43°34' E 010°19'0 0.0
2014-Jul-11 04:33N 43°34' E 010°19'0 0.0
2014-Jul-11 03:30N 43°34' E 010°19'0 0.0
2014-Jul-11 02:27N 43°34' E 010°19'0 0.0
2014-Jul-11 01:33N 43°34' E 010°19'0 0.0
2014-Jul-11 00:30N 43°34' E 010°19'0 0.0
2014-Jul-10 23:33N 43°34' E 010°19'0 0.0
2014-Jul-10 22:33N 43°34' E 010°19'0 0.0
2014-Jul-10 21:33N 43°34' E 010°19'0 0.0
2014-Jul-10 20:33N 43°34' E 010°19'0 0.0
2014-Jul-10 19:33N 43°34' E 010°19'0 0.0
2014-Jul-10 18:21N 43°34' E 010°19'0 0.0
2014-Jul-10 17:33N 43°34' E 010°19'0 0.0
2014-Jul-10 16:33N 43°34' E 010°19'0 0.0
2014-Jul-10 15:24N 43°34' E 010°19'0 0.0
2014-Jul-10 14:27N 43°34' E 010°19'0 0.0
2014-Jul-10 13:30N 43°34' E 010°19'0 0.0
2014-Jul-10 12:27N 43°34' E 010°19'0 0.0
2014-Jul-10 11:33N 43°34' E 010°19'0 0.0
2014-Jul-10 10:33N 43°34' E 010°19'0 0.0
2014-Jul-10 09:24N 43°34' E 010°19'0 0.0
2014-Jul-10 08:24N 43°34' E 010°19'0 0.0
2014-Jul-10 07:33N 43°34' E 010°19'0 0.0
2014-Jul-10 06:33N 43°34' E 010°19'0 0.0
2014-Jul-10 05:33N 43°34' E 010°19'0 0.0
2014-Jul-10 04:33N 43°34' E 010°19'0 0.0
2014-Jul-10 03:30N 43°34' E 010°19'0 0.0
2014-Jul-10 02:30N 43°34' E 010°19'0 0.0
2014-Jul-10 01:33N 43°34' E 010°19'0 0.0
2014-Jul-10 00:33N 43°34' E 010°19'0 0.0
2014-Jul-09 23:06N 43°34' E 010°19'0 0.0
2014-Jul-09 22:15N 43°34' E 010°19'0 0.0
2014-Jul-09 21:33N 43°34' E 010°19'0 0.0
2014-Jul-09 20:30N 43°34' E 010°19'0 0.0
2014-Jul-09 19:12N 43°34' E 010°19'0 0.0
2014-Jul-09 18:30N 43°34' E 010°19'0 0.0
2014-Jul-09 17:21N 43°34' E 010°19'0 0.0
2014-Jul-09 16:33N 43°34' E 010°19'0 0.0
2014-Jul-09 15:30N 43°34' E 010°19'0 0.0
2014-Jul-09 14:30N 43°34' E 010°19'0 0.0
2014-Jul-09 13:33N 43°34' E 010°19'3 2.9
2014-Jul-09 12:34N 43°32' E 010°17'4 4.1
2014-Jul-09 11:34N 43°29' E 010°14'2 2.4
2014-Jul-09 10:33N 43°31' E 010°16'0 0.3
2014-Jul-09 09:33N 43°31' E 010°16'0 0.0
2014-Jul-09 08:33N 43°31' E 010°16'0 0.0
2014-Jul-09 07:30N 43°31' E 010°16'0 0.0
2014-Jul-09 06:33N 43°31' E 010°16'0 0.0
2014-Jul-09 05:33N 43°31' E 010°16'0 0.0
2014-Jul-09 04:33N 43°31' E 010°16'0 0.0
2014-Jul-09 03:30N 43°31' E 010°16'0 0.0
2014-Jul-09 02:33N 43°31' E 010°16'0 0.0
2014-Jul-09 01:33N 43°31' E 010°16'0 0.0
2014-Jul-09 00:33N 43°31' E 010°16'0 0.2
2014-Jul-08 23:34N 43°31' E 010°16'1111.0
2014-Jul-08 22:33N 43°21' E 010°09'5 5.2
2014-Jul-08 21:33N 43°17' E 010°04'3 3.1
2014-Jul-08 20:33N 43°20' E 010°06'2 2.3
2014-Jul-08 19:33N 43°22' E 010°07'2 1.9
2014-Jul-08 18:33N 43°24' E 010°07'2 2.1
2014-Jul-08 17:34N 43°26' E 010°09'2 1.5
2014-Jul-08 16:34N 43°27' E 010°11'0 0.1
2014-Jul-08 15:34N 43°27' E 010°11'1 0.7
2014-Jul-08 14:33N 43°27' E 010°12'1 1.2
2014-Jul-08 13:33N 43°28' E 010°13'1 1.4
2014-Jul-08 12:33N 43°29' E 010°15'2 1.6
2014-Jul-08 11:34N 43°30' E 010°17'0 0.0
2014-Jul-08 10:30N 43°30' E 010°17'0 0.0
2014-Jul-08 09:33N 43°30' E 010°17'  

Dump ship's entire track history